NCAR-RAP Real-Time Weather Data

Output produced by METARs form (24 January 2022  23:44 UTC)
found at http://weather.rap.ucar.edu/surface/
 
KGFK 242253Z 31005KT 10SM FEW250 M21/M25 A3016 RMK AO2 SLP243 T12111250
KGFK 242153Z 33011KT 10SM FEW015 M20/M24 A3016 RMK AO2 SLP241 T12001244
KGFK 242053Z 33010KT 6SM BLSN CLR M21/M24 A3015 RMK AO2 SLP239 60000 T12061244 53006
KGFK 241953Z 33013KT 4SM BLSN SCT009 M21/M24 A3013 RMK AO2 SLP233 T12111239
KGFK 241853Z 35015KT 4SM BLSN FEW009 M22/M24 A3013 RMK AO2 SNB1758E50 SLP229 P0000 T12171244
KGFK 241804Z 33014KT 4SM -SN BLSN SCT009 M22/M24 A3013 RMK AO2 SNB1758 IC P0000 T12171244
KGFK 241753Z 33012KT 9SM CLR M22/M24 A3013 RMK AO2 SLP230 4/010 933034 60000 T12171244 11217 21239 51023
KGFK 241653Z 33014KT 8SM CLR M22/M25 A3011 RMK AO2 SNE16 SLP224 P0000 T12221250
KGFK 241617Z 33012KT 5SM BR CLR M23/M26 A3010 RMK AO2 SNE16 P0000 T12281256
KGFK 241553Z 32009KT 4SM -SN BR CLR M23/M26 A3009 RMK AO2 SLP217 IC SUN DOGS P0000 T12331256
KGFK 241526Z 34012KT 6SM -SN BR FEW150 M23/M26 A3008 RMK AO2 IC SUN DOGS P0000 T12331256
KGFK 241453Z 34012KT 1 1/2SM -SN BR FEW000 M23/M26 A3006 RMK AO2 SLP208 SN BR FEW000 IC SUN DOGS P0000 60000 T12331256 51036
KGFK 241353Z 34010KT 3SM -SN BR SCT004 M23/M25 A3002 RMK AO2 TWR VIS 4 SLP194 IC P0000 T12331250